sensor_id;sensor_type;location;lat;lon;timestamp;P1;durP1;ratioP1;P2;durP2;ratioP2
18019;SDS011;9135;48.362;10.878;2023-05-16T00:00:21;2.97;;;2.53;;
18019;SDS011;9135;48.362;10.878;2023-05-16T00:02:49;2.77;;;2.60;;
18019;SDS011;9135;48.362;10.878;2023-05-16T00:05:15;1.60;;;1.50;;
18019;SDS011;9135;48.362;10.878;2023-05-16T00:07:42;1.63;;;1.53;;
18019;SDS011;9135;48.362;10.878;2023-05-16T00:10:09;1.87;;;1.73;;
18019;SDS011;9135;48.362;10.878;2023-05-16T00:12:35;1.70;;;1.60;;
18019;SDS011;9135;48.362;10.878;2023-05-16T00:15:03;2.43;;;2.30;;
18019;SDS011;9135;48.362;10.878;2023-05-16T00:17:30;2.77;;;2.57;;
18019;SDS011;9135;48.362;10.878;2023-05-16T00:19:56;2.77;;;2.57;;
18019;SDS011;9135;48.362;10.878;2023-05-16T00:22:25;2.10;;;1.73;;
18019;SDS011;9135;48.362;10.878;2023-05-16T00:24:52;2.83;;;2.63;;
18019;SDS011;9135;48.362;10.878;2023-05-16T00:27:18;2.63;;;2.43;;
18019;SDS011;9135;48.362;10.878;2023-05-16T00:29:44;2.00;;;1.90;;
18019;SDS011;9135;48.362;10.878;2023-05-16T00:32:10;3.27;;;2.97;;
18019;SDS011;9135;48.362;10.878;2023-05-16T00:34:36;2.30;;;2.10;;
18019;SDS011;9135;48.362;10.878;2023-05-16T00:37:02;2.37;;;1.83;;
18019;SDS011;9135;48.362;10.878;2023-05-16T00:39:29;3.00;;;2.30;;
18019;SDS011;9135;48.362;10.878;2023-05-16T00:41:55;11.37;;;2.43;;
18019;SDS011;9135;48.362;10.878;2023-05-16T00:44:21;2.33;;;2.13;;
18019;SDS011;9135;48.362;10.878;2023-05-16T00:46:47;2.33;;;2.13;;
18019;SDS011;9135;48.362;10.878;2023-05-16T00:49:13;2.43;;;2.23;;
18019;SDS011;9135;48.362;10.878;2023-05-16T00:51:39;2.43;;;2.00;;
18019;SDS011;9135;48.362;10.878;2023-05-16T00:54:06;2.57;;;2.37;;
18019;SDS011;9135;48.362;10.878;2023-05-16T00:56:32;2.33;;;1.93;;
18019;SDS011;9135;48.362;10.878;2023-05-16T00:58:58;3.60;;;2.10;;
18019;SDS011;9135;48.362;10.878;2023-05-16T01:01:25;2.23;;;2.10;;
18019;SDS011;9135;48.362;10.878;2023-05-16T01:03:52;2.87;;;2.67;;
18019;SDS011;9135;48.362;10.878;2023-05-16T01:06:18;4.37;;;2.23;;
18019;SDS011;9135;48.362;10.878;2023-05-16T01:08:45;2.07;;;1.93;;
18019;SDS011;9135;48.362;10.878;2023-05-16T01:11:13;2.60;;;2.50;;
18019;SDS011;9135;48.362;10.878;2023-05-16T01:13:54;3.00;;;2.80;;
18019;SDS011;9135;48.362;10.878;2023-05-16T01:24:22;2.57;;;2.20;;
18019;SDS011;9135;48.362;10.878;2023-05-16T01:26:52;2.83;;;2.50;;
18019;SDS011;9135;48.362;10.878;2023-05-16T01:29:19;2.33;;;2.13;;
18019;SDS011;9135;48.362;10.878;2023-05-16T01:31:45;2.40;;;2.20;;
18019;SDS011;9135;48.362;10.878;2023-05-16T01:34:11;4.47;;;3.43;;
18019;SDS011;9135;48.362;10.878;2023-05-16T01:36:46;3.37;;;2.37;;
18019;SDS011;9135;48.362;10.878;2023-05-16T01:39:21;2.73;;;2.53;;
18019;SDS011;9135;48.362;10.878;2023-05-16T01:47:08;3.17;;;2.87;;
18019;SDS011;9135;48.362;10.878;2023-05-16T01:49:40;2.20;;;2.00;;
18019;SDS011;9135;48.362;10.878;2023-05-16T01:52:07;2.33;;;2.23;;
18019;SDS011;9135;48.362;10.878;2023-05-16T01:54:35;2.57;;;2.33;;
18019;SDS011;9135;48.362;10.878;2023-05-16T01:57:02;2.90;;;2.63;;
18019;SDS011;9135;48.362;10.878;2023-05-16T01:59:29;4.50;;;2.10;;
18019;SDS011;9135;48.362;10.878;2023-05-16T02:01:55;4.20;;;3.90;;
18019;SDS011;9135;48.362;10.878;2023-05-16T02:04:22;1.63;;;1.53;;
18019;SDS011;9135;48.362;10.878;2023-05-16T02:06:48;1.97;;;1.87;;
18019;SDS011;9135;48.362;10.878;2023-05-16T02:09:14;2.23;;;2.13;;
18019;SDS011;9135;48.362;10.878;2023-05-16T02:11:40;2.43;;;2.20;;
18019;SDS011;9135;48.362;10.878;2023-05-16T02:14:07;2.40;;;2.20;;
18019;SDS011;9135;48.362;10.878;2023-05-16T02:16:33;2.27;;;2.17;;
18019;SDS011;9135;48.362;10.878;2023-05-16T02:18:59;2.93;;;2.60;;
18019;SDS011;9135;48.362;10.878;2023-05-16T02:21:25;3.03;;;2.73;;
18019;SDS011;9135;48.362;10.878;2023-05-16T02:23:52;2.90;;;2.70;;
18019;SDS011;9135;48.362;10.878;2023-05-16T02:26:18;2.70;;;2.50;;
18019;SDS011;9135;48.362;10.878;2023-05-16T02:28:44;4.33;;;3.43;;
18019;SDS011;9135;48.362;10.878;2023-05-16T02:31:10;2.37;;;2.17;;
18019;SDS011;9135;48.362;10.878;2023-05-16T02:33:36;2.90;;;2.70;;
18019;SDS011;9135;48.362;10.878;2023-05-16T02:36:02;2.40;;;2.20;;
18019;SDS011;9135;48.362;10.878;2023-05-16T02:38:28;1.77;;;1.67;;
18019;SDS011;9135;48.362;10.878;2023-05-16T02:40:54;2.37;;;1.83;;
18019;SDS011;9135;48.362;10.878;2023-05-16T02:43:20;4.10;;;3.07;;
18019;SDS011;9135;48.362;10.878;2023-05-16T02:45:46;2.97;;;2.67;;
18019;SDS011;9135;48.362;10.878;2023-05-16T02:48:12;5.53;;;3.67;;
18019;SDS011;9135;48.362;10.878;2023-05-16T02:50:38;2.27;;;2.17;;
18019;SDS011;9135;48.362;10.878;2023-05-16T02:53:04;2.40;;;2.20;;
18019;SDS011;9135;48.362;10.878;2023-05-16T02:55:30;2.47;;;2.20;;
18019;SDS011;9135;48.362;10.878;2023-05-16T02:57:56;2.27;;;2.17;;
18019;SDS011;9135;48.362;10.878;2023-05-16T03:00:23;3.13;;;2.57;;
18019;SDS011;9135;48.362;10.878;2023-05-16T03:02:49;3.43;;;2.90;;
18019;SDS011;9135;48.362;10.878;2023-05-16T03:05:15;3.07;;;2.90;;
18019;SDS011;9135;48.362;10.878;2023-05-16T03:07:41;3.13;;;2.87;;
18019;SDS011;9135;48.362;10.878;2023-05-16T03:10:07;3.33;;;3.07;;
18019;SDS011;9135;48.362;10.878;2023-05-16T03:12:33;2.90;;;2.53;;
18019;SDS011;9135;48.362;10.878;2023-05-16T03:14:59;3.00;;;2.80;;
18019;SDS011;9135;48.362;10.878;2023-05-16T03:17:25;2.80;;;2.27;;
18019;SDS011;9135;48.362;10.878;2023-05-16T03:19:52;3.73;;;3.20;;
18019;SDS011;9135;48.362;10.878;2023-05-16T03:22:18;3.37;;;3.07;;
18019;SDS011;9135;48.362;10.878;2023-05-16T03:24:44;2.77;;;2.57;;
18019;SDS011;9135;48.362;10.878;2023-05-16T03:27:11;2.07;;;1.97;;
18019;SDS011;9135;48.362;10.878;2023-05-16T03:29:37;5.63;;;2.93;;
18019;SDS011;9135;48.362;10.878;2023-05-16T03:32:03;2.37;;;2.13;;
18019;SDS011;9135;48.362;10.878;2023-05-16T03:34:29;1.93;;;1.87;;
18019;SDS011;9135;48.362;10.878;2023-05-16T03:36:55;2.97;;;2.87;;
18019;SDS011;9135;48.362;10.878;2023-05-16T03:39:21;1.70;;;1.70;;
18019;SDS011;9135;48.362;10.878;2023-05-16T03:41:47;3.90;;;3.57;;
18019;SDS011;9135;48.362;10.878;2023-05-16T03:44:13;2.37;;;2.27;;
18019;SDS011;9135;48.362;10.878;2023-05-16T03:46:39;2.93;;;2.63;;
18019;SDS011;9135;48.362;10.878;2023-05-16T03:49:05;6.93;;;2.77;;
18019;SDS011;9135;48.362;10.878;2023-05-16T03:51:31;3.30;;;3.20;;
18019;SDS011;9135;48.362;10.878;2023-05-16T03:53:58;3.23;;;3.03;;
18019;SDS011;9135;48.362;10.878;2023-05-16T03:56:24;2.60;;;2.40;;
18019;SDS011;9135;48.362;10.878;2023-05-16T03:58:51;2.23;;;2.13;;
18019;SDS011;9135;48.362;10.878;2023-05-16T04:01:17;2.80;;;2.03;;
18019;SDS011;9135;48.362;10.878;2023-05-16T04:03:43;3.13;;;2.67;;
18019;SDS011;9135;48.362;10.878;2023-05-16T04:06:09;5.27;;;2.67;;
18019;SDS011;9135;48.362;10.878;2023-05-16T04:08:35;4.73;;;4.00;;
18019;SDS011;9135;48.362;10.878;2023-05-16T04:11:03;2.90;;;2.57;;
18019;SDS011;9135;48.362;10.878;2023-05-16T04:13:29;3.87;;;2.47;;
18019;SDS011;9135;48.362;10.878;2023-05-16T04:15:55;4.60;;;3.40;;
18019;SDS011;9135;48.362;10.878;2023-05-16T04:18:21;3.03;;;2.73;;
18019;SDS011;9135;48.362;10.878;2023-05-16T04:20:47;5.17;;;3.03;;
18019;SDS011;9135;48.362;10.878;2023-05-16T04:23:14;3.80;;;3.50;;
18019;SDS011;9135;48.362;10.878;2023-05-16T04:25:40;3.03;;;2.83;;
18019;SDS011;9135;48.362;10.878;2023-05-16T04:28:06;3.47;;;3.27;;
18019;SDS011;9135;48.362;10.878;2023-05-16T04:30:33;3.73;;;3.50;;
18019;SDS011;9135;48.362;10.878;2023-05-16T04:32:59;3.73;;;3.40;;
18019;SDS011;9135;48.362;10.878;2023-05-16T04:35:26;3.73;;;3.43;;
18019;SDS011;9135;48.362;10.878;2023-05-16T04:37:52;7.23;;;3.53;;
18019;SDS011;9135;48.362;10.878;2023-05-16T04:40:18;3.37;;;2.80;;
18019;SDS011;9135;48.362;10.878;2023-05-16T04:42:44;2.47;;;2.33;;
18019;SDS011;9135;48.362;10.878;2023-05-16T04:45:11;4.23;;;3.50;;
18019;SDS011;9135;48.362;10.878;2023-05-16T04:47:38;4.13;;;3.33;;
18019;SDS011;9135;48.362;10.878;2023-05-16T04:50:05;4.77;;;3.83;;
18019;SDS011;9135;48.362;10.878;2023-05-16T04:52:33;2.60;;;2.40;;
18019;SDS011;9135;48.362;10.878;2023-05-16T04:54:59;3.37;;;2.63;;
18019;SDS011;9135;48.362;10.878;2023-05-16T04:57:25;3.47;;;3.17;;
18019;SDS011;9135;48.362;10.878;2023-05-16T04:59:52;2.97;;;2.67;;
18019;SDS011;9135;48.362;10.878;2023-05-16T05:02:18;4.10;;;3.63;;
18019;SDS011;9135;48.362;10.878;2023-05-16T05:04:44;3.83;;;2.87;;
18019;SDS011;9135;48.362;10.878;2023-05-16T05:07:10;3.77;;;3.00;;
18019;SDS011;9135;48.362;10.878;2023-05-16T05:09:36;2.90;;;2.70;;
18019;SDS011;9135;48.362;10.878;2023-05-16T05:12:02;3.97;;;3.40;;
18019;SDS011;9135;48.362;10.878;2023-05-16T05:14:29;2.97;;;2.67;;
18019;SDS011;9135;48.362;10.878;2023-05-16T05:16:55;5.40;;;3.90;;
18019;SDS011;9135;48.362;10.878;2023-05-16T05:19:21;9.17;;;4.10;;
18019;SDS011;9135;48.362;10.878;2023-05-16T05:21:47;8.00;;;4.07;;
18019;SDS011;9135;48.362;10.878;2023-05-16T05:24:13;3.83;;;3.50;;
18019;SDS011;9135;48.362;10.878;2023-05-16T05:26:39;4.57;;;4.17;;
18019;SDS011;9135;48.362;10.878;2023-05-16T05:29:05;6.30;;;4.47;;
18019;SDS011;9135;48.362;10.878;2023-05-16T05:31:31;7.30;;;4.67;;
18019;SDS011;9135;48.362;10.878;2023-05-16T05:33:58;5.30;;;3.73;;
18019;SDS011;9135;48.362;10.878;2023-05-16T05:36:24;6.50;;;3.77;;
18019;SDS011;9135;48.362;10.878;2023-05-16T05:38:51;16.70;;;4.07;;
18019;SDS011;9135;48.362;10.878;2023-05-16T05:41:17;8.07;;;4.30;;
18019;SDS011;9135;48.362;10.878;2023-05-16T05:43:43;6.20;;;4.97;;
18019;SDS011;9135;48.362;10.878;2023-05-16T05:46:09;6.43;;;3.90;;
18019;SDS011;9135;48.362;10.878;2023-05-16T05:48:35;5.83;;;4.57;;
18019;SDS011;9135;48.362;10.878;2023-05-16T05:51:01;6.83;;;4.27;;
18019;SDS011;9135;48.362;10.878;2023-05-16T05:53:27;6.33;;;4.23;;
18019;SDS011;9135;48.362;10.878;2023-05-16T05:55:53;7.03;;;3.60;;
18019;SDS011;9135;48.362;10.878;2023-05-16T05:58:20;4.17;;;3.83;;
18019;SDS011;9135;48.362;10.878;2023-05-16T06:00:46;6.67;;;3.77;;
18019;SDS011;9135;48.362;10.878;2023-05-16T06:03:12;5.67;;;4.03;;
18019;SDS011;9135;48.362;10.878;2023-05-16T06:05:38;6.20;;;4.77;;
18019;SDS011;9135;48.362;10.878;2023-05-16T06:08:05;10.10;;;4.53;;
18019;SDS011;9135;48.362;10.878;2023-05-16T06:10:31;5.87;;;4.23;;
18019;SDS011;9135;48.362;10.878;2023-05-16T06:12:57;6.70;;;4.83;;
18019;SDS011;9135;48.362;10.878;2023-05-16T06:15:24;5.70;;;4.17;;
18019;SDS011;9135;48.362;10.878;2023-05-16T06:17:50;6.60;;;5.13;;
18019;SDS011;9135;48.362;10.878;2023-05-16T06:20:16;5.23;;;4.83;;
18019;SDS011;9135;48.362;10.878;2023-05-16T06:22:43;5.60;;;4.40;;
18019;SDS011;9135;48.362;10.878;2023-05-16T06:25:09;8.13;;;4.07;;
18019;SDS011;9135;48.362;10.878;2023-05-16T06:27:35;4.40;;;3.63;;
18019;SDS011;9135;48.362;10.878;2023-05-16T06:30:01;5.67;;;4.47;;
18019;SDS011;9135;48.362;10.878;2023-05-16T06:32:28;10.10;;;3.93;;
18019;SDS011;9135;48.362;10.878;2023-05-16T06:34:54;5.17;;;4.47;;
18019;SDS011;9135;48.362;10.878;2023-05-16T06:37:20;7.03;;;3.20;;
18019;SDS011;9135;48.362;10.878;2023-05-16T06:39:47;4.50;;;3.90;;
18019;SDS011;9135;48.362;10.878;2023-05-16T06:42:13;4.63;;;3.70;;
18019;SDS011;9135;48.362;10.878;2023-05-16T06:44:39;6.77;;;4.80;;
18019;SDS011;9135;48.362;10.878;2023-05-16T06:47:05;12.00;;;4.83;;
18019;SDS011;9135;48.362;10.878;2023-05-16T06:49:32;5.03;;;3.67;;
18019;SDS011;9135;48.362;10.878;2023-05-16T06:51:58;5.23;;;3.37;;
18019;SDS011;9135;48.362;10.878;2023-05-16T06:54:24;4.40;;;4.00;;
18019;SDS011;9135;48.362;10.878;2023-05-16T06:56:50;6.03;;;4.78;;
18019;SDS011;9135;48.362;10.878;2023-05-16T06:59:16;4.57;;;4.13;;
18019;SDS011;9135;48.362;10.878;2023-05-16T07:01:42;5.77;;;3.77;;
18019;SDS011;9135;48.362;10.878;2023-05-16T07:04:08;4.10;;;3.70;;
18019;SDS011;9135;48.362;10.878;2023-05-16T07:06:34;4.00;;;3.57;;
18019;SDS011;9135;48.362;10.878;2023-05-16T07:09:00;3.27;;;3.00;;
18019;SDS011;9135;48.362;10.878;2023-05-16T07:11:26;5.65;;;3.70;;
18019;SDS011;9135;48.362;10.878;2023-05-16T07:13:52;6.72;;;4.18;;
18019;SDS011;9135;48.362;10.878;2023-05-16T07:16:18;5.68;;;3.40;;
18019;SDS011;9135;48.362;10.878;2023-05-16T07:18:45;3.90;;;3.40;;
18019;SDS011;9135;48.362;10.878;2023-05-16T07:21:11;5.93;;;3.78;;
18019;SDS011;9135;48.362;10.878;2023-05-16T07:23:37;5.28;;;4.15;;
18019;SDS011;9135;48.362;10.878;2023-05-16T07:26:03;4.72;;;4.38;;
18019;SDS011;9135;48.362;10.878;2023-05-16T07:28:29;2.45;;;2.35;;
18019;SDS011;9135;48.362;10.878;2023-05-16T07:30:55;3.97;;;3.65;;
18019;SDS011;9135;48.362;10.878;2023-05-16T07:33:22;3.25;;;3.05;;
18019;SDS011;9135;48.362;10.878;2023-05-16T07:35:49;4.22;;;3.83;;
18019;SDS011;9135;48.362;10.878;2023-05-16T07:38:15;5.63;;;3.88;;
18019;SDS011;9135;48.362;10.878;2023-05-16T07:40:41;4.65;;;4.30;;
18019;SDS011;9135;48.362;10.878;2023-05-16T07:43:07;5.70;;;4.32;;
18019;SDS011;9135;48.362;10.878;2023-05-16T07:45:33;7.43;;;3.72;;
18019;SDS011;9135;48.362;10.878;2023-05-16T07:47:59;3.80;;;3.35;;
18019;SDS011;9135;48.362;10.878;2023-05-16T07:50:25;5.28;;;3.58;;
18019;SDS011;9135;48.362;10.878;2023-05-16T07:52:51;3.47;;;3.17;;
18019;SDS011;9135;48.362;10.878;2023-05-16T07:55:17;3.50;;;3.22;;
18019;SDS011;9135;48.362;10.878;2023-05-16T07:57:46;4.10;;;3.88;;
18019;SDS011;9135;48.362;10.878;2023-05-16T08:00:12;6.85;;;4.93;;
18019;SDS011;9135;48.362;10.878;2023-05-16T08:02:38;5.53;;;4.95;;
18019;SDS011;9135;48.362;10.878;2023-05-16T08:05:05;7.18;;;3.13;;
18019;SDS011;9135;48.362;10.878;2023-05-16T08:07:31;4.72;;;3.95;;
18019;SDS011;9135;48.362;10.878;2023-05-16T08:09:57;3.38;;;3.08;;
18019;SDS011;9135;48.362;10.878;2023-05-16T08:12:24;4.10;;;3.80;;
18019;SDS011;9135;48.362;10.878;2023-05-16T08:14:51;6.13;;;3.80;;
18019;SDS011;9135;48.362;10.878;2023-05-16T08:17:17;4.45;;;4.05;;
18019;SDS011;9135;48.362;10.878;2023-05-16T08:19:43;5.15;;;4.45;;
18019;SDS011;9135;48.362;10.878;2023-05-16T08:22:10;3.40;;;3.13;;
18019;SDS011;9135;48.362;10.878;2023-05-16T08:24:36;3.42;;;3.08;;
18019;SDS011;9135;48.362;10.878;2023-05-16T08:27:02;5.80;;;4.88;;
18019;SDS011;9135;48.362;10.878;2023-05-16T08:29:28;8.80;;;4.57;;
18019;SDS011;9135;48.362;10.878;2023-05-16T08:31:55;6.65;;;4.13;;
18019;SDS011;9135;48.362;10.878;2023-05-16T08:34:21;6.60;;;4.15;;
18019;SDS011;9135;48.362;10.878;2023-05-16T08:36:48;4.85;;;4.40;;
18019;SDS011;9135;48.362;10.878;2023-05-16T08:39:14;8.95;;;4.68;;
18019;SDS011;9135;48.362;10.878;2023-05-16T08:41:40;4.75;;;3.63;;
18019;SDS011;9135;48.362;10.878;2023-05-16T08:44:06;6.28;;;4.47;;
18019;SDS011;9135;48.362;10.878;2023-05-16T08:46:32;5.22;;;4.72;;
18019;SDS011;9135;48.362;10.878;2023-05-16T08:48:59;6.10;;;3.70;;
18019;SDS011;9135;48.362;10.878;2023-05-16T08:51:30;4.88;;;3.63;;
18019;SDS011;9135;48.362;10.878;2023-05-16T08:54:01;3.88;;;3.17;;
18019;SDS011;9135;48.362;10.878;2023-05-16T08:56:28;5.85;;;3.70;;
18019;SDS011;9135;48.362;10.878;2023-05-16T08:58:54;4.85;;;3.33;;
18019;SDS011;9135;48.362;10.878;2023-05-16T09:01:22;4.05;;;3.63;;
18019;SDS011;9135;48.362;10.878;2023-05-16T09:03:51;5.82;;;4.45;;
18019;SDS011;9135;48.362;10.878;2023-05-16T09:06:17;4.13;;;3.83;;
18019;SDS011;9135;48.362;10.878;2023-05-16T09:08:43;4.90;;;3.90;;
18019;SDS011;9135;48.362;10.878;2023-05-16T09:11:10;6.15;;;4.35;;
18019;SDS011;9135;48.362;10.878;2023-05-16T09:13:37;19.50;;;4.82;;
18019;SDS011;9135;48.362;10.878;2023-05-16T09:16:10;4.38;;;3.95;;
18019;SDS011;9135;48.362;10.878;2023-05-16T09:18:42;4.78;;;3.33;;
18019;SDS011;9135;48.362;10.878;2023-05-16T09:21:09;5.43;;;4.20;;
18019;SDS011;9135;48.362;10.878;2023-05-16T09:23:35;4.72;;;4.28;;
18019;SDS011;9135;48.362;10.878;2023-05-16T09:26:02;8.15;;;5.35;;
18019;SDS011;9135;48.362;10.878;2023-05-16T09:28:31;6.35;;;5.28;;
18019;SDS011;9135;48.362;10.878;2023-05-16T09:30:57;10.15;;;5.15;;
18019;SDS011;9135;48.362;10.878;2023-05-16T09:33:27;6.32;;;4.93;;
18019;SDS011;9135;48.362;10.878;2023-05-16T09:35:57;5.18;;;4.30;;
18019;SDS011;9135;48.362;10.878;2023-05-16T09:38:23;3.55;;;3.25;;
18019;SDS011;9135;48.362;10.878;2023-05-16T09:40:51;3.60;;;3.22;;
18019;SDS011;9135;48.362;10.878;2023-05-16T09:43:17;4.97;;;3.63;;
18019;SDS011;9135;48.362;10.878;2023-05-16T09:45:46;4.75;;;3.88;;
18019;SDS011;9135;48.362;10.878;2023-05-16T09:48:13;5.72;;;4.63;;
18019;SDS011;9135;48.362;10.878;2023-05-16T09:50:40;5.35;;;4.47;;
18019;SDS011;9135;48.362;10.878;2023-05-16T09:53:12;6.60;;;4.32;;
18019;SDS011;9135;48.362;10.878;2023-05-16T09:55:38;3.85;;;3.42;;
18019;SDS011;9135;48.362;10.878;2023-05-16T09:58:04;4.78;;;3.38;;
18019;SDS011;9135;48.362;10.878;2023-05-16T10:00:31;4.50;;;3.95;;
18019;SDS011;9135;48.362;10.878;2023-05-16T10:02:58;4.20;;;3.42;;
18019;SDS011;9135;48.362;10.878;2023-05-16T10:05:27;6.03;;;3.53;;
18019;SDS011;9135;48.362;10.878;2023-05-16T10:07:54;4.75;;;3.90;;
18019;SDS011;9135;48.362;10.878;2023-05-16T10:10:21;5.43;;;3.10;;
18019;SDS011;9135;48.362;10.878;2023-05-16T10:12:47;5.90;;;4.70;;
18019;SDS011;9135;48.362;10.878;2023-05-16T10:15:14;5.25;;;3.80;;
18019;SDS011;9135;48.362;10.878;2023-05-16T10:17:40;6.50;;;4.28;;
18019;SDS011;9135;48.362;10.878;2023-05-16T10:20:09;4.68;;;4.25;;
18019;SDS011;9135;48.362;10.878;2023-05-16T10:22:38;4.35;;;3.95;;
18019;SDS011;9135;48.362;10.878;2023-05-16T10:25:14;4.20;;;3.55;;
18019;SDS011;9135;48.362;10.878;2023-05-16T10:27:41;8.73;;;5.40;;
18019;SDS011;9135;48.362;10.878;2023-05-16T10:30:07;4.10;;;3.72;;
18019;SDS011;9135;48.362;10.878;2023-05-16T10:32:34;3.88;;;3.22;;
18019;SDS011;9135;48.362;10.878;2023-05-16T10:35:01;4.40;;;3.50;;
18019;SDS011;9135;48.362;10.878;2023-05-16T10:37:28;5.30;;;3.75;;
18019;SDS011;9135;48.362;10.878;2023-05-16T10:39:54;3.53;;;2.92;;
18019;SDS011;9135;48.362;10.878;2023-05-16T10:42:21;4.25;;;3.42;;
18019;SDS011;9135;48.362;10.878;2023-05-16T10:44:47;4.30;;;3.90;;
18019;SDS011;9135;48.362;10.878;2023-05-16T10:47:17;5.20;;;3.25;;
18019;SDS011;9135;48.362;10.878;2023-05-16T10:49:44;6.55;;;4.45;;
18019;SDS011;9135;48.362;10.878;2023-05-16T10:52:11;3.50;;;3.13;;
18019;SDS011;9135;48.362;10.878;2023-05-16T10:54:40;4.30;;;4.00;;
18019;SDS011;9135;48.362;10.878;2023-05-16T11:02:20;3.95;;;3.63;;
18019;SDS011;9135;48.362;10.878;2023-05-16T11:04:52;7.70;;;4.28;;
18019;SDS011;9135;48.362;10.878;2023-05-16T11:07:19;3.88;;;3.35;;
18019;SDS011;9135;48.362;10.878;2023-05-16T11:09:52;4.28;;;3.88;;
18019;SDS011;9135;48.362;10.878;2023-05-16T11:12:19;4.18;;;3.75;;
18019;SDS011;9135;48.362;10.878;2023-05-16T11:14:48;4.28;;;3.88;;
18019;SDS011;9135;48.362;10.878;2023-05-16T11:17:19;7.53;;;3.90;;
18019;SDS011;9135;48.362;10.878;2023-05-16T11:19:51;4.30;;;3.85;;
18019;SDS011;9135;48.362;10.878;2023-05-16T11:27:22;5.75;;;4.72;;
18019;SDS011;9135;48.362;10.878;2023-05-16T11:29:48;5.28;;;4.78;;
18019;SDS011;9135;48.362;10.878;2023-05-16T11:32:17;5.05;;;3.75;;
18019;SDS011;9135;48.362;10.878;2023-05-16T11:34:43;6.25;;;5.53;;
18019;SDS011;9135;48.362;10.878;2023-05-16T11:37:12;7.88;;;5.78;;
18019;SDS011;9135;48.362;10.878;2023-05-16T11:39:39;7.13;;;4.60;;
18019;SDS011;9135;48.362;10.878;2023-05-16T11:42:05;7.10;;;4.57;;
18019;SDS011;9135;48.362;10.878;2023-05-16T11:44:31;9.82;;;6.88;;
18019;SDS011;9135;48.362;10.878;2023-05-16T11:46:58;4.90;;;4.38;;
18019;SDS011;9135;48.362;10.878;2023-05-16T11:49:26;6.97;;;5.57;;
18019;SDS011;9135;48.362;10.878;2023-05-16T11:51:52;6.53;;;4.85;;
18019;SDS011;9135;48.362;10.878;2023-05-16T11:54:20;9.77;;;6.45;;
18019;SDS011;9135;48.362;10.878;2023-05-16T11:56:46;5.65;;;5.10;;
18019;SDS011;9135;48.362;10.878;2023-05-16T11:59:12;10.20;;;5.63;;
18019;SDS011;9135;48.362;10.878;2023-05-16T12:01:39;6.93;;;4.97;;
18019;SDS011;9135;48.362;10.878;2023-05-16T12:04:06;6.82;;;5.00;;
18019;SDS011;9135;48.362;10.878;2023-05-16T12:06:36;4.37;;;3.80;;
18019;SDS011;9135;48.362;10.878;2023-05-16T12:09:12;6.60;;;5.63;;
18019;SDS011;9135;48.362;10.878;2023-05-16T12:11:42;5.60;;;5.07;;
18019;SDS011;9135;48.362;10.878;2023-05-16T12:14:11;4.85;;;4.35;;
18019;SDS011;9135;48.362;10.878;2023-05-16T12:16:38;4.65;;;3.55;;
18019;SDS011;9135;48.362;10.878;2023-05-16T12:19:10;5.57;;;3.97;;
18019;SDS011;9135;48.362;10.878;2023-05-16T12:21:36;3.13;;;2.83;;
18019;SDS011;9135;48.362;10.878;2023-05-16T12:24:03;3.90;;;3.57;;
18019;SDS011;9135;48.362;10.878;2023-05-16T12:26:30;8.32;;;6.43;;
18019;SDS011;9135;48.362;10.878;2023-05-16T12:28:57;7.00;;;4.07;;
18019;SDS011;9135;48.362;10.878;2023-05-16T12:31:34;4.83;;;4.37;;
18019;SDS011;9135;48.362;10.878;2023-05-16T12:34:01;6.20;;;4.50;;
18019;SDS011;9135;48.362;10.878;2023-05-16T12:36:32;9.27;;;4.87;;
18019;SDS011;9135;48.362;10.878;2023-05-16T12:39:02;3.53;;;3.23;;
18019;SDS011;9135;48.362;10.878;2023-05-16T12:41:29;3.53;;;2.50;;
18019;SDS011;9135;48.362;10.878;2023-05-16T12:44:14;5.63;;;3.37;;
18019;SDS011;9135;48.362;10.878;2023-05-16T12:46:42;5.93;;;3.47;;
18019;SDS011;9135;48.362;10.878;2023-05-16T12:49:08;4.40;;;3.37;;
18019;SDS011;9135;48.362;10.878;2023-05-16T12:51:37;3.80;;;3.00;;
18019;SDS011;9135;48.362;10.878;2023-05-16T12:54:06;2.87;;;2.67;;
18019;SDS011;9135;48.362;10.878;2023-05-16T12:56:38;2.90;;;2.70;;
18019;SDS011;9135;48.362;10.878;2023-05-16T12:59:05;4.73;;;3.80;;
18019;SDS011;9135;48.362;10.878;2023-05-16T13:01:31;5.03;;;3.80;;
18019;SDS011;9135;48.362;10.878;2023-05-16T13:03:57;7.33;;;3.83;;
18019;SDS011;9135;48.362;10.878;2023-05-16T13:06:23;6.17;;;4.40;;
18019;SDS011;9135;48.362;10.878;2023-05-16T13:08:50;3.13;;;2.57;;
18019;SDS011;9135;48.362;10.878;2023-05-16T13:11:16;3.10;;;2.60;;
18019;SDS011;9135;48.362;10.878;2023-05-16T13:13:43;4.18;;;3.80;;
18019;SDS011;9135;48.362;10.878;2023-05-16T13:16:09;2.75;;;2.55;;
18019;SDS011;9135;48.362;10.878;2023-05-16T13:18:35;4.07;;;3.77;;
18019;SDS011;9135;48.362;10.878;2023-05-16T13:21:04;3.83;;;3.30;;
18019;SDS011;9135;48.362;10.878;2023-05-16T13:26:06;6.63;;;3.13;;
18019;SDS011;9135;48.362;10.878;2023-05-16T13:28:34;7.03;;;4.27;;
18019;SDS011;9135;48.362;10.878;2023-05-16T13:31:03;5.78;;;3.95;;
18019;SDS011;9135;48.362;10.878;2023-05-16T13:33:35;6.00;;;4.55;;
18019;SDS011;9135;48.362;10.878;2023-05-16T13:36:01;5.75;;;3.90;;
18019;SDS011;9135;48.362;10.878;2023-05-16T13:38:30;10.85;;;4.47;;
18019;SDS011;9135;48.362;10.878;2023-05-16T13:40:59;6.55;;;4.30;;
18019;SDS011;9135;48.362;10.878;2023-05-16T13:43:25;6.40;;;3.95;;
18019;SDS011;9135;48.362;10.878;2023-05-16T13:48:26;7.93;;;5.00;;
18019;SDS011;9135;48.362;10.878;2023-05-16T13:50:52;7.38;;;5.85;;
18019;SDS011;9135;48.362;10.878;2023-05-16T13:53:19;5.55;;;5.15;;
18019;SDS011;9135;48.362;10.878;2023-05-16T13:55:45;8.33;;;5.50;;
18019;SDS011;9135;48.362;10.878;2023-05-16T13:58:11;7.05;;;4.38;;
18019;SDS011;9135;48.362;10.878;2023-05-16T14:00:42;4.80;;;4.43;;
18019;SDS011;9135;48.362;10.878;2023-05-16T14:03:08;5.13;;;4.65;;
18019;SDS011;9135;48.362;10.878;2023-05-16T14:05:34;4.95;;;4.43;;
18019;SDS011;9135;48.362;10.878;2023-05-16T14:08:03;7.07;;;4.43;;
18019;SDS011;9135;48.362;10.878;2023-05-16T14:10:35;6.17;;;4.17;;
18019;SDS011;9135;48.362;10.878;2023-05-16T14:13:04;4.50;;;4.13;;
18019;SDS011;9135;48.362;10.878;2023-05-16T14:15:30;3.90;;;3.37;;
18019;SDS011;9135;48.362;10.878;2023-05-16T14:17:59;3.23;;;2.73;;
18019;SDS011;9135;48.362;10.878;2023-05-16T14:20:25;4.97;;;3.23;;
18019;SDS011;9135;48.362;10.878;2023-05-16T14:22:51;2.67;;;2.47;;
18019;SDS011;9135;48.362;10.878;2023-05-16T14:25:17;3.47;;;2.40;;
18019;SDS011;9135;48.362;10.878;2023-05-16T14:27:43;2.37;;;2.27;;
18019;SDS011;9135;48.362;10.878;2023-05-16T14:30:09;3.10;;;2.77;;
18019;SDS011;9135;48.362;10.878;2023-05-16T14:32:36;2.90;;;2.70;;
18019;SDS011;9135;48.362;10.878;2023-05-16T14:35:04;2.37;;;2.17;;
18019;SDS011;9135;48.362;10.878;2023-05-16T14:37:30;2.83;;;2.43;;
18019;SDS011;9135;48.362;10.878;2023-05-16T14:39:56;2.47;;;2.27;;
18019;SDS011;9135;48.362;10.878;2023-05-16T14:42:25;3.80;;;3.30;;
18019;SDS011;9135;48.362;10.878;2023-05-16T14:44:51;2.67;;;2.47;;
18019;SDS011;9135;48.362;10.878;2023-05-16T14:47:17;3.43;;;2.70;;
18019;SDS011;9135;48.362;10.878;2023-05-16T14:49:46;3.07;;;2.67;;
18019;SDS011;9135;48.362;10.878;2023-05-16T14:52:12;3.47;;;3.17;;
18019;SDS011;9135;48.362;10.878;2023-05-16T14:54:38;2.83;;;2.63;;
18019;SDS011;9135;48.362;10.878;2023-05-16T14:57:04;2.83;;;2.63;;
18019;SDS011;9135;48.362;10.878;2023-05-16T14:59:31;3.57;;;3.27;;
18019;SDS011;9135;48.362;10.878;2023-05-16T15:02:00;4.63;;;3.42;;
18019;SDS011;9135;48.362;10.878;2023-05-16T15:04:26;1.73;;;1.67;;
18019;SDS011;9135;48.362;10.878;2023-05-16T15:06:53;2.87;;;2.57;;
18019;SDS011;9135;48.362;10.878;2023-05-16T15:09:19;3.67;;;2.87;;
18019;SDS011;9135;48.362;10.878;2023-05-16T15:11:47;2.80;;;2.60;;
18019;SDS011;9135;48.362;10.878;2023-05-16T15:14:14;3.20;;;2.90;;